Mission, Canada
Current Conditions -  °F | °C
As of 4:00 AM on Sunday 25 Jan 2015 (Local Time) from CYXX Reporting Station
Scattered Clouds Scattered Clouds  
Wind Chill: 52°   Ceiling: Unl
Heat Index: 52°   Visibility: 7mi
Dew Point: 52°   Wind: 6mph
Humidity: 100%   Direction: 230°SW
Pressure: 30.18"   Gusts: NA
Location:  49.13°N, 122.3°W
Report Text: CYXX 251200Z 23005KT 7SM SCT080 11/11 A3018 RMK AC4 PRESFR SLP220
Loading
Personal Weather Stations






























Interactive Weather Map New forecast layout! Learn more

10-Day Weather Forecast

Advertisements
Track Severe Weather on mobile